createdAt,value
2019-05-22T00:00:43.108Z,6.70
2019-05-22T00:03:14.622Z,7.00
2019-05-22T00:05:45.127Z,7.12
2019-05-22T00:08:17.501Z,6.92
2019-05-22T00:10:49.218Z,6.37
2019-05-22T00:13:20.479Z,6.33
2019-05-22T00:15:51.580Z,6.40
2019-05-22T00:18:22.703Z,7.00
2019-05-22T00:20:53.976Z,7.17
2019-05-22T00:23:23.447Z,7.12
2019-05-22T00:25:54.526Z,7.72
2019-05-22T00:28:27.009Z,6.95
2019-05-22T00:30:57.384Z,6.83
2019-05-22T00:33:27.481Z,6.15
2019-05-22T00:35:58.828Z,6.55
2019-05-22T00:38:29.660Z,6.17
2019-05-22T00:41:00.761Z,6.25
2019-05-22T00:43:32.265Z,7.25
2019-05-22T00:46:05.334Z,7.28
2019-05-22T00:48:35.831Z,7.10
2019-05-22T00:51:10.375Z,7.55
2019-05-22T00:53:41.730Z,7.25
2019-05-22T00:56:14.216Z,7.45
2019-05-22T00:58:45.736Z,6.40
2019-05-22T01:01:17.278Z,6.53
2019-05-22T01:03:49.035Z,6.15
2019-05-22T01:06:21.281Z,6.40
2019-05-22T01:08:52.867Z,6.10
2019-05-22T01:11:24.732Z,7.12
2019-05-22T01:13:54.800Z,6.95
2019-05-22T01:16:25.695Z,7.58
2019-05-22T01:18:55.389Z,7.53
2019-05-22T01:21:25.924Z,7.83
2019-05-22T01:23:57.891Z,7.58
2019-05-22T01:26:28.902Z,8.03
2019-05-22T01:28:58.340Z,7.67
2019-05-22T01:31:30.469Z,7.67
2019-05-22T01:34:02.060Z,7.35
2019-05-22T01:36:33.939Z,7.25
2019-05-22T01:39:09.723Z,7.87
2019-05-22T01:41:41.732Z,7.03
2019-05-22T01:44:11.459Z,6.97
2019-05-22T01:46:43.537Z,7.33
2019-05-22T01:49:14.559Z,7.15
2019-05-22T01:51:46.439Z,6.60
2019-05-22T01:54:16.368Z,6.55
2019-05-22T01:56:45.797Z,6.20
2019-05-22T01:59:15.325Z,5.53
2019-05-22T02:01:45.142Z,5.60
2019-05-22T02:04:15.812Z,5.85
2019-05-22T02:06:46.100Z,5.15
2019-05-22T02:09:21.929Z,5.33
2019-05-22T02:11:56.877Z,5.50
2019-05-22T02:16:57.080Z,6.17
2019-05-22T02:19:28.376Z,5.58
2019-05-22T02:21:59.692Z,5.65
2019-05-22T02:24:30.810Z,5.42
2019-05-22T02:27:02.099Z,6.37
2019-05-22T02:29:32.827Z,5.22
2019-05-22T02:32:02.230Z,5.40
2019-05-22T02:34:31.746Z,5.20
2019-05-22T02:37:01.281Z,5.55
2019-05-22T02:39:32.729Z,5.40
2019-05-22T02:42:07.961Z,4.95
2019-05-22T02:44:38.253Z,5.20
2019-05-22T02:47:18.978Z,6.17
2019-05-22T02:49:41.169Z,4.90
2019-05-22T02:52:11.342Z,5.42
2019-05-22T02:54:41.507Z,5.35
2019-05-22T02:57:11.950Z,5.30
2019-05-22T02:59:42.569Z,5.87
2019-05-22T03:02:14.081Z,5.80
2019-05-22T03:04:48.246Z,5.55
2019-05-22T03:07:18.529Z,5.90
2019-05-22T03:09:49.434Z,5.85
2019-05-22T03:12:20.034Z,6.00
2019-05-22T03:14:49.861Z,6.10
2019-05-22T03:17:24.752Z,5.92
2019-05-22T03:19:54.729Z,5.83
2019-05-22T03:22:30.211Z,5.47
2019-05-22T03:25:04.102Z,5.53
2019-05-22T03:27:38.897Z,5.70
2019-05-22T03:30:14.017Z,4.83
2019-05-22T03:32:44.978Z,4.90
2019-05-22T03:35:15.574Z,4.33
2019-05-22T03:37:45.327Z,4.10
2019-05-22T03:40:16.527Z,4.15
2019-05-22T03:42:46.337Z,4.40
2019-05-22T03:45:16.578Z,3.72
2019-05-22T03:47:46.417Z,5.05
2019-05-22T03:50:17.869Z,4.53
2019-05-22T03:52:48.047Z,4.70
2019-05-22T03:55:17.916Z,4.30
2019-05-22T03:57:47.452Z,4.70
2019-05-22T04:00:19.689Z,4.87
2019-05-22T04:02:53.386Z,5.65
2019-05-22T04:05:25.047Z,5.30
2019-05-22T04:07:57.538Z,5.37
2019-05-22T04:10:31.788Z,6.15
2019-05-22T04:13:01.244Z,5.87
2019-05-22T04:15:31.029Z,5.30
2019-05-22T04:18:05.169Z,5.72
2019-05-22T04:20:35.157Z,5.30
2019-05-22T04:23:05.062Z,5.60
2019-05-22T04:25:34.770Z,5.15
2019-05-22T04:28:07.068Z,4.85
2019-05-22T04:30:36.695Z,4.67
2019-05-22T04:33:07.067Z,4.25
2019-05-22T04:35:37.211Z,4.45
2019-05-22T04:38:07.327Z,5.17
2019-05-22T04:40:42.434Z,4.40
2019-05-22T04:43:12.339Z,5.10
2019-05-22T04:45:42.165Z,4.65
2019-05-22T04:48:11.778Z,4.22
2019-05-22T04:50:41.655Z,4.00
2019-05-22T04:53:11.273Z,4.80
2019-05-22T04:55:40.798Z,4.30
2019-05-22T04:58:11.662Z,4.67
2019-05-22T05:00:41.319Z,4.17
2019-05-22T05:03:11.852Z,4.33
2019-05-22T05:05:43.115Z,4.25
2019-05-22T05:08:14.952Z,4.45
2019-05-22T05:10:48.448Z,4.08
2019-05-22T05:13:18.432Z,4.12
2019-05-22T05:15:47.944Z,4.80
2019-05-22T05:18:18.237Z,4.10
2019-05-22T05:20:47.695Z,4.20
2019-05-22T05:23:17.570Z,4.17
2019-05-22T05:25:47.294Z,3.98
2019-05-22T05:28:17.284Z,4.28
2019-05-22T05:30:47.254Z,3.77
2019-05-22T05:33:16.788Z,3.20
2019-05-22T05:35:46.692Z,3.80
2019-05-22T05:38:18.351Z,3.55
2019-05-22T05:40:48.361Z,3.75
2019-05-22T05:43:19.237Z,3.00
2019-05-22T05:45:50.898Z,3.25
2019-05-22T05:48:23.439Z,3.60
2019-05-22T05:50:57.619Z,3.47
2019-05-22T05:53:27.121Z,3.90
2019-05-22T05:56:01.296Z,3.65
2019-05-22T05:58:30.928Z,3.98
2019-05-22T06:01:06.950Z,3.40
2019-05-22T06:03:39.883Z,2.77
2019-05-22T06:06:14.399Z,2.83
2019-05-22T06:08:45.438Z,3.27
2019-05-22T06:11:19.620Z,3.37
2019-05-22T06:13:49.078Z,3.30
2019-05-22T06:16:24.825Z,3.30
2019-05-22T06:18:57.168Z,2.20
2019-05-22T06:21:27.279Z,2.42
2019-05-22T06:24:03.155Z,2.50
2019-05-22T06:26:37.313Z,2.50
2019-05-22T06:29:08.014Z,2.58
2019-05-22T06:31:42.163Z,1.98
2019-05-22T06:34:12.468Z,2.37
2019-05-22T06:36:42.943Z,2.50
2019-05-22T06:39:13.882Z,2.40
2019-05-22T06:41:44.035Z,2.33
2019-05-22T06:44:18.220Z,2.58
2019-05-22T06:46:49.121Z,2.10
2019-05-22T06:49:23.427Z,2.20
2019-05-22T06:51:53.036Z,2.40
2019-05-22T06:54:22.568Z,2.30
2019-05-22T06:56:52.274Z,2.40
2019-05-22T06:59:21.789Z,2.80
2019-05-22T07:01:51.249Z,2.62
2019-05-22T07:04:21.468Z,2.40
2019-05-22T07:06:51.067Z,2.45
2019-05-22T07:09:21.835Z,2.62
2019-05-22T07:11:52.972Z,2.55
2019-05-22T07:14:23.302Z,2.17
2019-05-22T07:16:52.903Z,2.05
2019-05-22T07:19:24.353Z,2.22
2019-05-22T07:21:53.884Z,2.10
2019-05-22T07:24:23.982Z,2.10
2019-05-22T07:26:54.431Z,2.30
2019-05-22T07:29:23.966Z,1.92
2019-05-22T07:31:55.986Z,2.35
2019-05-22T07:34:26.184Z,2.35
2019-05-22T07:36:56.251Z,2.52
2019-05-22T07:39:25.769Z,2.35
2019-05-22T07:41:55.397Z,2.17
2019-05-22T07:44:24.878Z,2.20
2019-05-22T07:46:56.232Z,2.10
2019-05-22T07:49:25.691Z,2.02
2019-05-22T07:52:01.171Z,2.08
2019-05-22T07:54:26.313Z,2.45
2019-05-22T07:56:56.010Z,2.15
2019-05-22T07:59:25.814Z,1.92
2019-05-22T08:01:55.338Z,2.77
2019-05-22T08:04:25.220Z,2.30
2019-05-22T08:06:55.181Z,2.65
2019-05-22T08:09:24.773Z,3.00
2019-05-22T08:11:54.231Z,3.00
2019-05-22T08:14:24.639Z,2.98
2019-05-22T08:16:54.825Z,2.92
2019-05-22T08:19:26.642Z,2.90
2019-05-22T08:22:06.814Z,2.85
2019-05-22T08:24:28.386Z,2.62
2019-05-22T08:26:58.572Z,2.52
2019-05-22T08:29:28.901Z,2.50
2019-05-22T08:32:00.463Z,2.25
2019-05-22T08:34:31.002Z,2.70
2019-05-22T08:37:01.402Z,2.55
2019-05-22T08:39:30.869Z,2.50
2019-05-22T08:42:00.392Z,2.72
2019-05-22T08:44:30.758Z,2.47
2019-05-22T08:47:01.136Z,2.80
2019-05-22T08:49:31.327Z,2.92
2019-05-22T08:52:00.790Z,2.83
2019-05-22T08:54:32.855Z,3.55
2019-05-22T08:57:02.539Z,3.40
2019-05-22T08:59:32.156Z,3.30
2019-05-22T09:02:02.195Z,3.30
2019-05-22T09:04:31.727Z,3.22
2019-05-22T09:07:01.556Z,3.50
2019-05-22T09:09:31.237Z,3.65
2019-05-22T09:12:00.820Z,4.08
2019-05-22T09:14:31.919Z,3.95
2019-05-22T09:17:01.726Z,3.95
2019-05-22T09:19:31.505Z,4.30
2019-05-22T09:22:01.910Z,4.67
2019-05-22T09:24:35.115Z,6.10
2019-05-22T09:27:05.008Z,5.47
2019-05-22T09:29:34.570Z,6.62
2019-05-22T09:32:04.400Z,6.55
2019-05-22T09:34:34.430Z,9.65
2019-05-22T09:37:04.800Z,9.95
2019-05-22T09:39:34.781Z,10.82
2019-05-22T09:42:04.705Z,15.53
2019-05-22T09:44:34.315Z,15.60
2019-05-22T09:47:04.735Z,13.18
2019-05-22T09:49:34.352Z,10.13
2019-05-22T09:52:05.707Z,5.95
2019-05-22T09:54:35.427Z,5.62
2019-05-22T09:57:05.712Z,6.17
2019-05-22T09:59:35.919Z,5.35
2019-05-22T10:02:06.284Z,5.75
2019-05-22T10:04:36.014Z,5.87
2019-05-22T10:07:05.630Z,6.70
2019-05-22T10:09:35.528Z,5.67
2019-05-22T10:12:05.662Z,6.12
2019-05-22T10:14:36.227Z,5.33
2019-05-22T10:17:06.216Z,5.25
2019-05-22T10:19:35.667Z,5.60
2019-05-22T10:22:05.635Z,5.83
2019-05-22T10:24:35.074Z,4.62
2019-05-22T10:27:06.284Z,5.80
2019-05-22T10:29:35.860Z,5.05
2019-05-22T10:32:06.040Z,5.30
2019-05-22T10:34:35.538Z,5.42
2019-05-22T10:37:06.612Z,5.30
2019-05-22T10:39:36.824Z,4.83
2019-05-22T10:42:06.450Z,4.58
2019-05-22T10:44:36.386Z,4.75
2019-05-22T10:47:06.528Z,4.20
2019-05-22T10:49:36.155Z,3.90
2019-05-22T10:52:06.497Z,3.83
2019-05-22T10:54:35.945Z,4.25
2019-05-22T10:57:06.330Z,4.70
2019-05-22T10:59:35.907Z,6.00
2019-05-22T11:02:06.397Z,5.40
2019-05-22T11:04:36.301Z,6.28
2019-05-22T11:07:07.893Z,6.67
2019-05-22T11:09:37.602Z,6.58
2019-05-22T11:12:07.788Z,6.95
2019-05-22T11:14:37.421Z,7.40
2019-05-22T11:17:07.049Z,8.50
2019-05-22T11:19:36.819Z,9.50
2019-05-22T11:22:06.427Z,10.23
2019-05-22T11:24:35.891Z,11.03
2019-05-22T11:27:05.509Z,9.30
2019-05-22T11:29:35.319Z,9.98
2019-05-22T11:32:05.595Z,8.68
2019-05-22T11:34:35.344Z,8.50
2019-05-22T11:37:04.901Z,7.92
2019-05-22T11:39:39.263Z,9.78
2019-05-22T11:42:06.929Z,9.95
2019-05-22T11:44:36.577Z,14.25
2019-05-22T11:47:06.537Z,13.00
2019-05-22T11:49:36.321Z,14.93
2019-05-22T11:52:06.394Z,17.12
2019-05-22T11:54:36.195Z,18.02
2019-05-22T11:57:05.782Z,16.12
2019-05-22T11:59:36.929Z,15.38
2019-05-22T12:02:08.137Z,16.80
2019-05-22T12:04:48.155Z,15.70
2019-05-22T12:07:11.020Z,16.75
2019-05-22T12:09:41.680Z,16.55
2019-05-22T12:12:12.100Z,16.37
2019-05-22T12:14:41.829Z,15.63
2019-05-22T12:17:12.474Z,17.00
2019-05-22T12:19:42.866Z,16.07
2019-05-22T12:22:12.508Z,17.05
2019-05-22T12:24:42.263Z,17.62
2019-05-22T12:27:12.891Z,15.45
2019-05-22T12:29:44.099Z,16.50
2019-05-22T12:32:15.430Z,17.15
2019-05-22T12:34:44.890Z,18.10
2019-05-22T12:37:14.422Z,16.75
2019-05-22T12:39:44.526Z,18.27
2019-05-22T12:42:15.317Z,18.25
2019-05-22T12:44:45.399Z,15.25
2019-05-22T12:47:15.681Z,16.70
2019-05-22T12:49:45.419Z,16.57
2019-05-22T12:52:15.381Z,18.12
2019-05-22T12:54:48.316Z,17.45
2019-05-22T12:57:16.223Z,16.77
2019-05-22T12:59:46.029Z,18.75
2019-05-22T13:02:17.106Z,19.62
2019-05-22T13:04:47.529Z,16.60
2019-05-22T13:07:17.195Z,15.70
2019-05-22T13:09:47.073Z,15.43
2019-05-22T13:12:17.253Z,15.88
2019-05-22T13:14:47.640Z,12.88
2019-05-22T13:17:17.260Z,14.55
2019-05-22T13:19:47.860Z,15.15
2019-05-22T13:22:20.418Z,13.75
2019-05-22T13:24:50.904Z,13.35
2019-05-22T13:27:22.572Z,12.60
2019-05-22T13:29:53.867Z,11.78
2019-05-22T13:32:24.051Z,11.78
2019-05-22T13:34:54.652Z,14.07
2019-05-22T13:37:24.232Z,11.93
2019-05-22T13:39:53.791Z,12.45
2019-05-22T13:42:23.705Z,12.05
2019-05-22T13:44:54.078Z,13.32
2019-05-22T13:47:24.068Z,12.00
2019-05-22T13:49:55.168Z,10.25
2019-05-22T13:52:25.024Z,11.40
2019-05-22T13:54:55.658Z,8.05
2019-05-22T13:57:26.740Z,9.75
2019-05-22T13:59:56.185Z,9.63
2019-05-22T14:02:27.418Z,7.03
2019-05-22T14:04:57.064Z,8.48
2019-05-22T14:07:29.696Z,7.85
2019-05-22T14:09:59.170Z,8.13
2019-05-22T14:12:28.943Z,6.40
2019-05-22T14:14:58.634Z,4.17
2019-05-22T14:17:28.341Z,4.15
2019-05-22T14:19:57.938Z,6.22
2019-05-22T14:22:27.642Z,6.17
2019-05-22T14:24:58.338Z,5.97
2019-05-22T14:27:27.850Z,6.70
2019-05-22T14:29:57.550Z,5.60
2019-05-22T14:32:29.907Z,5.85
2019-05-22T14:34:58.787Z,5.00
2019-05-22T14:37:30.944Z,5.62
2019-05-22T14:40:00.739Z,5.15
2019-05-22T14:42:30.649Z,5.20
2019-05-22T14:45:00.122Z,6.12
2019-05-22T14:47:33.573Z,6.30
2019-05-22T14:50:04.870Z,6.97
2019-05-22T14:52:34.740Z,5.65
2019-05-22T14:55:05.823Z,5.72
2019-05-22T14:57:41.165Z,7.00
2019-05-22T15:00:13.967Z,5.55
2019-05-22T15:02:43.881Z,6.50
2019-05-22T15:05:14.046Z,5.75
2019-05-22T15:07:43.753Z,7.25
2019-05-22T15:10:16.958Z,6.90
2019-05-22T15:12:47.023Z,7.72
2019-05-22T15:15:17.061Z,6.33
2019-05-22T15:17:46.912Z,8.20
2019-05-22T15:20:21.560Z,9.30
2019-05-22T15:22:55.596Z,8.18
2019-05-22T15:25:23.519Z,7.60
2019-05-22T15:27:53.283Z,7.47
2019-05-22T15:30:25.879Z,7.08
2019-05-22T15:32:55.392Z,5.95
2019-05-22T15:35:24.931Z,5.87
2019-05-22T15:37:55.807Z,5.85
2019-05-22T15:40:25.489Z,6.37
2019-05-22T15:42:55.141Z,6.28
2019-05-22T15:45:27.332Z,8.40
2019-05-22T15:48:02.034Z,7.17
2019-05-22T15:50:35.155Z,7.45
2019-05-22T15:53:11.665Z,7.45
2019-05-22T15:58:12.081Z,5.65
2019-05-22T16:00:43.217Z,5.65
2019-05-22T16:03:18.541Z,5.65
2019-05-22T16:05:49.211Z,6.12
2019-05-22T16:08:19.257Z,10.80
2019-05-22T16:10:51.825Z,9.15
2019-05-22T16:13:24.547Z,10.23
2019-05-22T16:15:55.731Z,8.35
2019-05-22T16:18:28.529Z,7.97
2019-05-22T16:21:02.632Z,8.00
2019-05-22T16:23:35.236Z,9.20
2019-05-22T16:26:07.276Z,8.48
2019-05-22T16:28:38.752Z,8.88
2019-05-22T16:31:10.549Z,7.70
2019-05-22T16:33:43.218Z,8.65
2019-05-22T16:36:14.168Z,7.60
2019-05-22T16:38:45.042Z,7.53
2019-05-22T16:41:15.053Z,9.30
2019-05-22T16:43:49.792Z,8.68
2019-05-22T16:46:18.935Z,10.20
2019-05-22T16:48:49.969Z,8.45
2019-05-22T16:51:21.623Z,6.83
2019-05-22T16:53:54.058Z,6.65
2019-05-22T16:56:24.880Z,6.62
2019-05-22T16:58:55.862Z,6.58
2019-05-22T17:01:27.005Z,5.75
2019-05-22T17:04:01.499Z,6.22
2019-05-22T17:06:34.186Z,6.05
2019-05-22T17:09:05.654Z,7.20
2019-05-22T17:11:35.093Z,7.10
2019-05-22T17:14:06.871Z,7.37
2019-05-22T17:16:39.793Z,6.53
2019-05-22T17:19:26.613Z,8.58
2019-05-22T17:21:45.775Z,6.95
2019-05-22T17:24:17.272Z,6.40
2019-05-22T17:26:48.030Z,6.15
2019-05-22T17:29:19.042Z,6.10
2019-05-22T17:31:48.488Z,7.05
2019-05-22T17:34:20.225Z,6.47
2019-05-22T17:36:49.705Z,5.45
2019-05-22T17:39:19.510Z,5.20
2019-05-22T17:41:55.676Z,5.12
2019-05-22T17:44:22.777Z,5.05
2019-05-22T17:46:52.716Z,5.25
2019-05-22T17:49:22.164Z,6.47
2019-05-22T17:51:53.303Z,5.70
2019-05-22T17:54:22.912Z,4.72
2019-05-22T17:56:52.914Z,5.20
2019-05-22T17:59:22.350Z,5.60
2019-05-22T18:01:52.092Z,5.70
2019-05-22T18:04:21.958Z,6.10
2019-05-22T18:06:51.697Z,5.85
2019-05-22T18:09:21.463Z,6.45
2019-05-22T18:11:51.065Z,6.22
2019-05-22T18:14:21.282Z,7.12
2019-05-22T18:16:50.917Z,8.23
2019-05-22T18:19:21.618Z,7.78
2019-05-22T18:21:51.103Z,126.07
2019-05-22T18:24:21.204Z,582.65
2019-05-22T18:26:50.714Z,456.87
2019-05-22T18:29:20.436Z,540.92
2019-05-22T18:31:50.018Z,433.85
2019-05-22T18:34:19.504Z,98.72
2019-05-22T18:36:50.591Z,14.73
2019-05-22T18:39:20.335Z,13.08
2019-05-22T18:41:49.789Z,13.28
2019-05-22T18:44:19.294Z,13.53
2019-05-22T18:46:49.240Z,8.55
2019-05-22T18:49:18.776Z,9.38
2019-05-22T18:51:48.412Z,8.25
2019-05-22T18:54:19.136Z,7.70
2019-05-22T18:56:48.700Z,8.73
2019-05-22T18:59:18.150Z,9.63
2019-05-22T19:01:47.684Z,9.75
2019-05-22T19:04:17.302Z,8.98
2019-05-22T19:06:46.939Z,10.55
2019-05-22T19:09:17.145Z,10.75
2019-05-22T19:11:46.673Z,11.57
2019-05-22T19:14:16.907Z,23.55
2019-05-22T19:16:46.658Z,15.65
2019-05-22T19:19:16.117Z,13.72
2019-05-22T19:21:45.636Z,12.35
2019-05-22T19:24:15.163Z,13.00
2019-05-22T19:26:44.711Z,12.50
2019-05-22T19:29:14.247Z,12.73
2019-05-22T19:31:43.683Z,14.28
2019-05-22T19:34:13.721Z,14.30
2019-05-22T19:36:43.951Z,14.13
2019-05-22T19:39:13.637Z,14.00
2019-05-22T19:41:43.097Z,14.60
2019-05-22T19:44:13.185Z,14.28
2019-05-22T19:46:42.664Z,15.60
2019-05-22T19:49:13.060Z,16.20
2019-05-22T19:51:43.030Z,15.25
2019-05-22T19:54:12.919Z,15.93
2019-05-22T19:56:43.001Z,16.65
2019-05-22T19:59:12.749Z,16.25
2019-05-22T20:01:42.621Z,15.83
2019-05-22T20:04:12.521Z,15.68
2019-05-22T20:06:43.267Z,15.25
2019-05-22T20:09:13.319Z,15.93
2019-05-22T20:11:43.047Z,16.07
2019-05-22T20:14:12.502Z,16.02
2019-05-22T20:16:41.985Z,16.90
2019-05-22T20:19:12.154Z,16.12
2019-05-22T20:21:41.595Z,16.85
2019-05-22T20:24:11.959Z,16.75
2019-05-22T20:26:41.986Z,17.60
2019-05-22T20:29:13.162Z,16.30
2019-05-22T20:31:42.603Z,17.12
2019-05-22T20:34:12.229Z,17.00
2019-05-22T20:36:42.085Z,16.17
2019-05-22T20:39:13.505Z,16.42
2019-05-22T20:41:43.047Z,16.10
2019-05-22T20:44:12.694Z,18.85
2019-05-22T20:46:45.539Z,21.60
2019-05-22T20:49:15.732Z,22.13
2019-05-22T20:51:45.805Z,17.02
2019-05-22T20:54:15.324Z,17.65
2019-05-22T20:56:46.927Z,17.73
2019-05-22T20:59:17.107Z,17.25
2019-05-22T21:01:47.452Z,19.42
2019-05-22T21:04:20.496Z,19.17
2019-05-22T21:06:54.397Z,20.25
2019-05-22T21:09:24.676Z,19.40
2019-05-22T21:14:38.238Z,20.82
2019-05-22T21:17:07.687Z,19.92
2019-05-22T21:19:37.696Z,18.98
2019-05-22T21:22:08.803Z,20.08
2019-05-22T21:24:38.260Z,20.10
2019-05-22T21:27:09.714Z,18.02
2019-05-22T21:29:39.568Z,17.25
2019-05-22T21:32:09.060Z,18.12
2019-05-22T21:34:39.481Z,18.27
2019-05-22T21:37:09.905Z,17.75
2019-05-22T21:39:39.406Z,18.40
2019-05-22T21:42:09.649Z,19.37
2019-05-22T21:44:40.136Z,18.80
2019-05-22T21:47:10.514Z,20.00
2019-05-22T21:49:40.164Z,20.65
2019-05-22T21:52:11.275Z,20.85
2019-05-22T21:54:41.113Z,20.77
2019-05-22T21:57:11.659Z,21.12
2019-05-22T21:59:41.559Z,20.25
2019-05-22T22:02:14.074Z,21.17
2019-05-22T22:04:44.834Z,22.48
2019-05-22T22:07:14.447Z,22.45
2019-05-22T22:09:44.647Z,22.10
2019-05-22T22:12:19.072Z,23.65
2019-05-22T22:14:49.769Z,25.55
2019-05-22T22:17:20.955Z,26.45
2019-05-22T22:19:50.408Z,25.10
2019-05-22T22:22:24.736Z,23.67
2019-05-22T22:24:54.548Z,24.07
2019-05-22T22:27:24.397Z,23.55
2019-05-22T22:29:54.497Z,23.98
2019-05-22T22:32:26.121Z,22.13
2019-05-22T22:34:56.336Z,22.32
2019-05-22T22:37:28.957Z,21.73
2019-05-22T22:40:00.056Z,23.38
2019-05-22T22:42:31.641Z,23.52
2019-05-22T22:45:04.758Z,23.40
2019-05-22T22:47:44.073Z,22.85
2019-05-22T22:50:14.820Z,20.75
2019-05-22T22:52:45.509Z,21.65
2019-05-22T22:55:17.372Z,21.15
2019-05-22T22:57:48.476Z,20.65
2019-05-22T23:00:20.681Z,21.20
2019-05-22T23:02:51.596Z,20.50
2019-05-22T23:05:21.235Z,20.10
2019-05-22T23:07:51.025Z,19.87
2019-05-22T23:10:23.081Z,18.90
2019-05-22T23:12:54.718Z,18.52
2019-05-22T23:15:25.704Z,22.27
2019-05-22T23:17:55.904Z,22.65
2019-05-22T23:20:27.364Z,20.65
2019-05-22T23:22:55.912Z,19.23
2019-05-22T23:25:26.036Z,17.50
2019-05-22T23:27:55.504Z,17.05
2019-05-22T23:30:25.783Z,17.40
2019-05-22T23:32:55.260Z,16.40
2019-05-22T23:35:24.866Z,16.82
2019-05-22T23:37:54.403Z,16.32
2019-05-22T23:40:27.814Z,16.85
2019-05-22T23:42:59.347Z,17.10
2019-05-22T23:45:29.381Z,16.40
2019-05-22T23:48:04.035Z,16.05
2019-05-22T23:50:35.330Z,15.63
2019-05-22T23:53:06.173Z,15.85
2019-05-22T23:55:36.376Z,15.80
2019-05-22T23:58:07.959Z,14.75
